Terminal Aerodrome Forecast
Issued by NWS St Louis, MO

Home | Current Version | Previous Version | Text Only | Print | Product List | Glossary On
Versions: 1 2 3 4 5 6 7 8 9 10 11 12 13 14 15 16 17 18 19 20 21 22 23 24 25 26 27 28
000
FTUS43 KLSX 220500
TAFSTL
TAF
KSTL 220525Z 2206/2312 14009KT P6SM OVC050
     FM221300 14010KT P6SM BKN015 OVC040
     FM221500 14012KT 4SM -RA BR SCT008 OVC010
     FM230000 17012KT P6SM OVC015
     FM230300 21012KT P6SM OVC035=

USA.gov is the U.S. government's official web portal to all federal, state and local government web resources and services.